Bradford Regional Airport
KBFD : now visible

Airfield :











YOU CAN JOIN US ON...

 
LOGIN :

Register | Disclaimer

   EN    FR    IT 

 









Legend :    VFR   Marginal VFR   IFR   Intensive IFR   Very Intensive IFR
Visi :
Ceiling :
>= 8 km
>= 3000ft
5 to 8 km
1000 to 3000 ft
1500m to 5 km
500 to 1000 ft
800 to 1500m
200 to 500 ft
< 800m
< 200 ft
Symbols :   Thunderstorms  Fog  Heavy snow  Heavy precipitations  Wind > 20 kt






- Airport Elevation : 2143 ft
- IATA code : BFD


KBFD - Bradford Regional

CURRENT METAR :
  • 142153Z AUTO 29011KT 2SM -SN BR OVC008 00/M02 A2933 RMK AO2 SLP945 P0000 T00001022

EXPIRED METARs :
  • 142143Z AUTO 29011KT 1 1/4SM -SN BR BKN008 OVC014 00/M02 A2933 RMK AO2 P0000 T00001022
  • 142053Z AUTO 29011KT 3/4SM -SN BR BKN008 OVC011 00/M02 A2931 RMK AO2 SLP937 P0001 60011 T00001017 53015
  • 142032Z AUTO 30013G21KT 3/4SM -SN BR BKN008 OVC013 00/M02 A2930 RMK AO2 P0001 T00001017
  • 142022Z AUTO 29010KT 1SM -SN BR BKN008 OVC014 01/M02 A2930 RMK AO2 P0001 T00061017
  • 142015Z AUTO 30013KT 1SM -SN BR OVC010 01/M02 A2930 RMK AO2 P0000 T00061017
  • 141953Z AUTO 31011KT 1/2SM SN FG OVC007 01/M01 A2929 RMK AO2 SLP929 P0006 T00061011

TAF KBFD
Valid from the 14 at 22:00 until the 15 at 18:00 UTC


142150Z 1422/1518 29011KT 1SM -SN BR BKN008 OVC014
TEMPO 1500/1503 1 1/2SM -SN OVC007
FM150300 29017G24KT 2SM -SN BR OVC003
FM150600 28014G21KT 4SM BR OVC005



MET'MAP, your aeronautical weather chart ! - Copyright ORBIFLY December 2007 - Disclaimer

ORBIFLY MET'MAP TEAM :

Programming & Development : Alexandra Zaïnal
Concept & original design : Baudouin d'Aumeries
Assistance for programming : Marc-Olivier Méhu
Technical & hardware support : Manuel Goepfert

Contact : metmap@orbifly.com




SOURCES & CREDITS :

   NOAA       Earth
Advisory